createdAt,value
2023-01-23T00:01:03.692Z,3.76
2023-01-23T00:03:05.379Z,3.76
2023-01-23T00:05:06.804Z,3.75
2023-01-23T00:07:08.730Z,3.76
2023-01-23T00:09:10.461Z,3.75
2023-01-23T00:11:11.917Z,3.76
2023-01-23T00:13:13.902Z,3.76
2023-01-23T00:17:17.452Z,3.76
2023-01-23T00:19:19.252Z,3.76
2023-01-23T00:23:22.747Z,3.76
2023-01-23T00:25:24.628Z,3.75
2023-01-23T00:27:26.130Z,3.75
2023-01-23T00:29:27.917Z,3.75
2023-01-23T00:33:31.489Z,3.75
2023-01-23T00:35:33.120Z,3.75
2023-01-23T00:37:34.743Z,3.75
2023-01-23T00:39:36.336Z,3.75
2023-01-23T00:43:39.191Z,3.75
2023-01-23T00:45:41.112Z,3.75
2023-01-23T00:47:42.710Z,3.75
2023-01-23T00:49:44.688Z,3.75
2023-01-23T00:51:46.214Z,3.75
2023-01-23T00:53:47.866Z,3.75
2023-01-23T00:55:49.614Z,3.75
2023-01-23T00:59:52.380Z,3.75
2023-01-23T01:01:54.192Z,3.75
2023-01-23T01:05:57.583Z,3.75
2023-01-23T01:07:58.829Z,3.75
2023-01-23T01:09:59.861Z,3.75
2023-01-23T01:12:01.026Z,3.74
2023-01-23T01:14:03.055Z,3.74
2023-01-23T01:16:04.771Z,3.75
2023-01-23T01:18:05.944Z,3.75
2023-01-23T01:20:07.822Z,3.75
2023-01-23T01:22:09.241Z,3.74
2023-01-23T01:26:12.231Z,3.74
2023-01-23T01:28:14.008Z,3.74
2023-01-23T01:32:16.723Z,3.74
2023-01-23T01:34:18.213Z,3.74
2023-01-23T01:36:19.936Z,3.74
2023-01-23T01:38:21.647Z,3.74
2023-01-23T01:42:24.424Z,3.74
2023-01-23T01:44:25.450Z,3.74
2023-01-23T01:46:26.895Z,3.74
2023-01-23T01:48:28.056Z,3.74
2023-01-23T01:50:29.265Z,3.74
2023-01-23T01:52:30.862Z,3.74
2023-01-23T01:54:32.326Z,3.74
2023-01-23T01:58:35.594Z,3.74
2023-01-23T02:00:37.033Z,3.74
2023-01-23T02:02:38.768Z,3.74
2023-01-23T02:04:40.105Z,3.74
2023-01-23T02:06:41.931Z,3.74
2023-01-23T02:08:43.371Z,3.74
2023-01-23T02:10:45.392Z,3.74
2023-01-23T02:14:48.073Z,3.74
2023-01-23T02:16:49.334Z,3.74
2023-01-23T02:18:50.930Z,3.74
2023-01-23T02:20:52.358Z,3.74
2023-01-23T02:22:54.312Z,3.74
2023-01-23T02:24:55.612Z,3.74
2023-01-23T02:26:57.507Z,3.74
2023-01-23T02:28:58.854Z,3.74
2023-01-23T02:31:00.025Z,3.74
2023-01-23T02:33:01.577Z,3.74
2023-01-23T02:35:03.514Z,3.74
2023-01-23T02:37:05.093Z,3.74
2023-01-23T02:41:08.010Z,3.74
2023-01-23T02:43:09.689Z,3.73
2023-01-23T02:45:11.594Z,3.73
2023-01-23T02:47:13.637Z,3.74
2023-01-23T02:49:15.705Z,3.74
2023-01-23T02:51:17.539Z,3.73
2023-01-23T02:53:19.122Z,3.73
2023-01-23T02:57:22.163Z,3.73
2023-01-23T02:59:23.343Z,3.73
2023-01-23T03:01:25.181Z,3.73
2023-01-23T03:03:26.988Z,3.73
2023-01-23T03:07:30.031Z,3.73
2023-01-23T03:09:31.599Z,3.73
2023-01-23T03:11:33.611Z,3.73
2023-01-23T03:13:35.316Z,3.73
2023-01-23T03:15:37.291Z,3.73
2023-01-23T03:17:38.771Z,3.73
2023-01-23T03:19:40.683Z,3.73
2023-01-23T03:23:43.059Z,3.73
2023-01-23T03:25:44.413Z,3.73
2023-01-23T03:27:45.977Z,3.73
2023-01-23T03:29:47.500Z,3.73
2023-01-23T03:31:49.311Z,3.73
2023-01-23T03:33:51.000Z,3.73
2023-01-23T03:35:52.914Z,3.73
2023-01-23T03:39:56.627Z,3.73
2023-01-23T03:41:58.142Z,3.72
2023-01-23T03:43:59.917Z,3.73
2023-01-23T03:46:01.456Z,3.72
2023-01-23T03:50:04.269Z,3.72
2023-01-23T03:52:05.857Z,3.72
2023-01-23T03:54:07.529Z,3.73
2023-01-23T03:56:09.550Z,3.72
2023-01-23T03:58:11.413Z,3.72
2023-01-23T04:00:13.208Z,3.72
2023-01-23T04:02:15.024Z,3.72
2023-01-23T04:06:17.551Z,3.72
2023-01-23T04:08:19.462Z,3.72
2023-01-23T04:10:20.944Z,3.72
2023-01-23T04:12:22.810Z,3.72
2023-01-23T04:14:24.664Z,3.72
2023-01-23T04:16:26.052Z,3.72
2023-01-23T04:18:27.351Z,3.72
2023-01-23T04:22:30.209Z,3.72
2023-01-23T04:24:32.019Z,3.72
2023-01-23T04:26:33.864Z,3.72
2023-01-23T04:28:35.486Z,3.72
2023-01-23T04:32:38.490Z,3.72
2023-01-23T04:34:40.301Z,3.72
2023-01-23T04:36:41.890Z,3.72
2023-01-23T04:38:43.773Z,3.72
2023-01-23T04:40:45.595Z,3.72
2023-01-23T04:42:47.280Z,3.72
2023-01-23T04:44:48.380Z,3.72
2023-01-23T04:48:51.298Z,3.71
2023-01-23T04:50:52.848Z,3.72
2023-01-23T04:52:54.469Z,3.72
2023-01-23T04:54:56.063Z,3.72
2023-01-23T04:56:57.188Z,3.72
2023-01-23T04:58:59.174Z,3.72
2023-01-23T05:01:01.256Z,3.72
2023-01-23T05:05:04.445Z,3.71
2023-01-23T05:07:06.035Z,3.71
2023-01-23T05:09:08.063Z,3.71
2023-01-23T05:11:09.445Z,3.71
2023-01-23T05:15:12.232Z,3.72
2023-01-23T05:17:13.342Z,3.71
2023-01-23T05:19:14.893Z,3.71
2023-01-23T05:21:16.808Z,3.72
2023-01-23T05:23:18.387Z,3.71
2023-01-23T05:25:19.877Z,3.71
2023-01-23T05:27:21.517Z,3.71
2023-01-23T05:31:25.031Z,3.71
2023-01-23T05:33:26.250Z,3.71
2023-01-23T05:35:27.745Z,3.71
2023-01-23T05:37:29.021Z,3.71
2023-01-23T05:39:30.699Z,3.71
2023-01-23T05:41:32.332Z,3.71
2023-01-23T05:43:33.440Z,3.71
2023-01-23T05:47:36.403Z,3.7
2023-01-23T05:49:38.431Z,3.71
2023-01-23T05:51:39.683Z,3.71
2023-01-23T05:53:41.353Z,3.71
2023-01-23T05:57:44.437Z,3.7
2023-01-23T05:59:45.660Z,3.7
2023-01-23T06:03:48.319Z,3.7
2023-01-23T06:05:50.339Z,3.7
2023-01-23T06:07:51.667Z,3.7
2023-01-23T06:09:53.197Z,3.7
2023-01-23T06:13:56.139Z,3.7
2023-01-23T06:15:58.117Z,3.7
2023-01-23T06:18:44.950Z,3.7
2023-01-23T06:20:46.403Z,3.7
2023-01-23T06:24:49.607Z,3.7
2023-01-23T06:26:50.757Z,3.7
2023-01-23T06:28:52.253Z,3.7
2023-01-23T06:30:53.858Z,3.7
2023-01-23T06:34:56.349Z,3.7
2023-01-23T06:36:58.030Z,3.7
2023-01-23T06:41:01.547Z,3.7
2023-01-23T06:43:02.885Z,3.7
2023-01-23T06:45:04.137Z,3.7
2023-01-23T06:47:06.137Z,3.7
2023-01-23T06:51:08.547Z,3.7
2023-01-23T06:53:09.759Z,3.7
2023-01-23T06:55:11.920Z,3.7
2023-01-23T06:57:13.048Z,3.7
2023-01-23T06:59:14.795Z,3.7
2023-01-23T07:01:16.572Z,3.7
2023-01-23T07:03:17.707Z,3.7
2023-01-23T07:07:19.800Z,3.7
2023-01-23T07:09:21.759Z,3.7
2023-01-23T07:11:23.372Z,3.69
2023-01-23T07:13:24.546Z,3.69
2023-01-23T07:17:27.601Z,3.7
2023-01-23T07:19:29.458Z,3.69
2023-01-23T07:21:30.551Z,3.69
2023-01-23T07:23:32.272Z,3.69
2023-01-23T07:25:33.341Z,3.69
2023-01-23T07:27:35.184Z,3.69
2023-01-23T07:29:37.101Z,3.69
2023-01-23T07:33:40.059Z,3.69
2023-01-23T07:35:41.704Z,3.69
2023-01-23T07:39:44.896Z,3.69
2023-01-23T07:41:46.502Z,3.69
2023-01-23T07:43:47.802Z,3.69
2023-01-23T07:45:49.741Z,3.69
2023-01-23T07:49:52.976Z,3.69
2023-01-23T07:51:53.965Z,3.69
2023-01-23T07:53:55.795Z,3.69
2023-01-23T07:55:57.508Z,3.69
2023-01-23T08:00:00.363Z,3.68
2023-01-23T08:02:01.635Z,3.69
2023-01-23T08:04:02.923Z,3.69
2023-01-23T08:06:04.087Z,3.69
2023-01-23T08:08:12.933Z,3.68
2023-01-23T08:10:06.482Z,3.68
2023-01-23T08:12:07.892Z,3.68
2023-01-23T08:16:13.404Z,3.69
2023-01-23T08:18:12.633Z,3.68
2023-01-23T08:20:13.870Z,3.69
2023-01-23T08:22:15.059Z,3.68
2023-01-23T08:24:16.415Z,3.68
2023-01-23T08:26:17.757Z,3.68
2023-01-23T08:28:18.848Z,3.68
2023-01-23T08:32:21.486Z,3.69
2023-01-23T08:34:23.283Z,3.68
2023-01-23T08:36:26.226Z,3.68
2023-01-23T08:38:27.064Z,3.68
2023-01-23T08:40:28.145Z,3.68
2023-01-23T08:42:29.791Z,3.68
2023-01-23T08:44:30.959Z,3.68
2023-01-23T08:48:34.240Z,3.68
2023-01-23T08:50:35.840Z,3.68
2023-01-23T08:52:37.085Z,3.68
2023-01-23T08:54:38.921Z,3.68
2023-01-23T08:58:41.180Z,3.68
2023-01-23T09:00:42.276Z,3.68
2023-01-23T09:04:46.038Z,3.68
2023-01-23T09:06:47.701Z,3.68
2023-01-23T09:08:49.058Z,3.68
2023-01-23T09:10:50.341Z,3.68
2023-01-23T09:14:53.179Z,3.68
2023-01-23T09:16:55.070Z,3.68
2023-01-23T09:18:56.476Z,3.68
2023-01-23T09:20:57.991Z,3.68
2023-01-23T09:22:59.108Z,3.68
2023-01-23T09:25:00.711Z,3.68
2023-01-23T09:27:01.731Z,3.68
2023-01-23T09:31:04.667Z,3.68
2023-01-23T09:33:05.706Z,3.68
2023-01-23T09:35:06.714Z,3.68
2023-01-23T09:37:07.726Z,3.68
2023-01-23T09:41:10.114Z,3.68
2023-01-23T09:43:11.918Z,3.68
2023-01-23T09:45:13.664Z,3.67
2023-01-23T09:47:17.042Z,3.68
2023-01-23T09:49:18.778Z,3.68
2023-01-23T09:51:20.730Z,3.68
2023-01-23T09:53:22.467Z,3.68
2023-01-23T09:57:25.551Z,3.67
2023-01-23T09:59:26.751Z,3.68
2023-01-23T10:03:29.986Z,3.68
2023-01-23T10:05:31.178Z,3.68
2023-01-23T10:07:32.477Z,3.67
2023-01-23T10:09:34.264Z,3.67
2023-01-23T10:13:37.748Z,3.68
2023-01-23T10:15:39.617Z,3.67
2023-01-23T10:17:40.805Z,3.68
2023-01-23T10:19:42.400Z,3.69
2023-01-23T10:23:45.770Z,3.7
2023-01-23T10:25:47.791Z,3.7
2023-01-23T10:27:49.050Z,3.7
2023-01-23T10:29:50.319Z,3.7
2023-01-23T10:31:51.770Z,3.7
2023-01-23T10:33:53.335Z,3.7
2023-01-23T10:35:55.064Z,3.7
2023-01-23T10:39:58.150Z,3.7
2023-01-23T10:42:02.252Z,3.7
2023-01-23T10:46:02.469Z,3.71
2023-01-23T10:48:06.389Z,3.71
2023-01-23T10:50:05.950Z,3.71
2023-01-23T10:52:07.319Z,3.71
2023-01-23T10:56:10.298Z,3.72
2023-01-23T10:58:12.222Z,3.72
2023-01-23T11:00:13.746Z,3.72
2023-01-23T11:02:14.932Z,3.72
2023-01-23T11:04:16.831Z,3.72
2023-01-23T11:06:18.916Z,3.72
2023-01-23T11:08:19.643Z,3.72
2023-01-23T11:12:22.174Z,3.73
2023-01-23T11:14:23.763Z,3.73
2023-01-23T11:16:24.857Z,3.74
2023-01-23T11:18:26.468Z,3.73
2023-01-23T11:22:29.515Z,3.74
2023-01-23T11:24:39.591Z,3.74
2023-01-23T11:26:33.025Z,3.74
2023-01-23T11:28:35.009Z,3.74
2023-01-23T11:30:36.259Z,3.74
2023-01-23T11:32:37.136Z,3.74
2023-01-23T11:34:38.616Z,3.74
2023-01-23T11:38:47.967Z,3.74
2023-01-23T11:40:43.129Z,3.74
2023-01-23T11:42:44.864Z,3.74
2023-01-23T11:44:46.716Z,3.74
2023-01-23T11:46:47.565Z,3.74
2023-01-23T11:48:49.516Z,3.74
2023-01-23T11:50:55.169Z,3.74
2023-01-23T11:54:54.570Z,3.74
2023-01-23T11:56:55.851Z,3.74
2023-01-23T12:00:59.377Z,3.74
2023-01-23T12:03:00.996Z,3.75
2023-01-23T12:05:02.953Z,3.74
2023-01-23T12:07:04.581Z,3.74
2023-01-23T12:11:06.830Z,3.75
2023-01-23T12:13:08.162Z,3.75
2023-01-23T12:15:09.664Z,3.75
2023-01-23T12:17:11.370Z,3.75
2023-01-23T12:19:12.816Z,3.75
2023-01-23T12:21:14.072Z,3.75
2023-01-23T12:23:15.130Z,3.76
2023-01-23T12:27:18.500Z,3.76
2023-01-23T12:29:20.305Z,3.76
2023-01-23T12:31:22.203Z,3.76
2023-01-23T12:33:24.015Z,3.76
2023-01-23T12:37:30.622Z,3.77
2023-01-23T12:39:27.662Z,3.77
2023-01-23T12:41:29.397Z,3.78
2023-01-23T12:43:31.343Z,3.77
2023-01-23T12:45:33.192Z,3.77
2023-01-23T12:47:34.786Z,3.77
2023-01-23T12:49:36.256Z,3.77
2023-01-23T12:53:39.711Z,3.78
2023-01-23T12:55:41.190Z,3.77
2023-01-23T12:57:52.612Z,3.78
2023-01-23T12:59:44.106Z,3.78
2023-01-23T13:02:29.839Z,3.78
2023-01-23T13:04:31.134Z,3.78
2023-01-23T13:06:32.336Z,3.78
2023-01-23T13:08:38.016Z,3.78
2023-01-23T13:10:35.585Z,3.8
2023-01-23T13:14:58.001Z,3.8
2023-01-23T13:16:40.246Z,3.8
2023-01-23T13:18:41.562Z,3.8
2023-01-23T13:20:42.990Z,3.8
2023-01-23T13:22:44.837Z,3.8
2023-01-23T13:24:46.555Z,3.8
2023-01-23T13:26:47.676Z,3.82
2023-01-23T13:30:51.015Z,3.83
2023-01-23T13:32:52.211Z,3.81
2023-01-23T13:34:54.184Z,3.8
2023-01-23T13:36:55.275Z,3.79
2023-01-23T13:38:56.518Z,3.79
2023-01-23T13:40:58.128Z,3.8
2023-01-23T13:42:59.273Z,3.8
2023-01-23T14:21:30.382Z,3.85
2023-01-23T14:23:30.183Z,3.85
2023-01-23T14:25:31.832Z,3.85
2023-01-23T14:29:35.127Z,3.86
2023-01-23T14:31:36.815Z,3.86
2023-01-23T14:33:38.164Z,3.87
2023-01-23T14:35:39.610Z,3.87
2023-01-23T14:39:44.076Z,3.87
2023-01-23T14:41:44.974Z,3.87
2023-01-23T14:43:44.955Z,3.88
2023-01-23T14:45:46.001Z,3.84
2023-01-23T14:47:53.491Z,3.84
2023-01-23T14:49:49.381Z,3.83
2023-01-23T14:51:51.141Z,3.83
2023-01-23T14:55:53.817Z,3.83
2023-01-23T14:57:55.306Z,3.82
2023-01-23T15:01:58.733Z,3.82
2023-01-23T15:04:00.623Z,3.82
2023-01-23T15:06:02.392Z,3.82
2023-01-23T15:08:04.305Z,3.82
2023-01-23T15:12:06.857Z,3.82
2023-01-23T15:14:08.797Z,3.82
2023-01-23T15:16:09.993Z,3.82
2023-01-23T15:18:11.185Z,3.82
2023-01-23T15:22:13.541Z,3.82
2023-01-23T15:24:15.126Z,3.82
2023-01-23T15:26:16.701Z,3.82
2023-01-23T15:28:18.575Z,3.82
2023-01-23T15:30:19.627Z,3.82
2023-01-23T15:32:21.195Z,3.82
2023-01-23T15:34:22.654Z,3.82
2023-01-23T15:38:25.671Z,3.82
2023-01-23T15:40:27.580Z,3.82
2023-01-23T15:44:30.757Z,3.82
2023-01-23T15:46:32.616Z,3.81
2023-01-23T15:48:34.406Z,3.82
2023-01-23T15:50:35.972Z,3.81
2023-01-23T15:54:39.514Z,3.82
2023-01-23T15:56:40.479Z,3.81
2023-01-23T15:58:42.426Z,3.81
2023-01-23T16:00:44.034Z,3.81
2023-01-23T16:04:46.707Z,3.81
2023-01-23T16:06:48.027Z,3.81
2023-01-23T16:08:54.999Z,3.81
2023-01-23T16:10:50.252Z,3.81
2023-01-23T16:12:51.387Z,3.81
2023-01-23T16:14:52.525Z,3.81
2023-01-23T16:16:54.505Z,3.81
2023-01-23T16:20:56.182Z,3.81
2023-01-23T16:22:57.731Z,3.81
2023-01-23T16:24:59.280Z,3.81
2023-01-23T16:27:00.487Z,3.81
2023-01-23T16:29:12.949Z,3.81
2023-01-23T16:31:03.292Z,3.81
2023-01-23T16:33:04.693Z,3.8
2023-01-23T16:37:07.522Z,3.8
2023-01-23T16:39:09.460Z,3.81
2023-01-23T16:41:10.533Z,3.8
2023-01-23T16:43:12.078Z,3.8
2023-01-23T16:45:14.087Z,3.8
2023-01-23T16:47:15.758Z,3.81
2023-01-23T16:49:17.466Z,3.81
2023-01-23T16:53:20.427Z,3.8
2023-01-23T16:55:22.663Z,3.8
2023-01-23T16:57:23.515Z,3.8
2023-01-23T16:59:25.007Z,3.8
2023-01-23T17:03:28.559Z,3.8
2023-01-23T17:05:29.585Z,3.8
2023-01-23T17:07:31.267Z,3.8
2023-01-23T17:09:32.673Z,3.8
2023-01-23T17:11:34.024Z,3.8
2023-01-23T17:13:35.201Z,3.8
2023-01-23T17:15:36.368Z,3.8
2023-01-23T17:19:39.167Z,3.8
2023-01-23T17:21:40.632Z,3.8
2023-01-23T17:23:42.040Z,3.8
2023-01-23T17:25:58.358Z,3.8
2023-01-23T17:27:47.467Z,3.8
2023-01-23T17:29:47.119Z,3.8
2023-01-23T17:31:49.055Z,3.8
2023-01-23T17:35:51.375Z,3.8
2023-01-23T17:37:52.763Z,3.8
2023-01-23T17:39:53.850Z,3.8
2023-01-23T17:41:55.567Z,3.8
2023-01-23T17:45:58.240Z,3.8
2023-01-23T17:48:00.146Z,3.8
2023-01-23T17:52:02.648Z,3.8
2023-01-23T17:54:04.654Z,3.8
2023-01-23T17:56:06.181Z,3.8
2023-01-23T17:58:07.940Z,3.8
2023-01-23T18:02:11.570Z,3.8
2023-01-23T18:04:13.240Z,3.8
2023-01-23T18:06:14.825Z,3.8
2023-01-23T18:08:16.042Z,3.79
2023-01-23T18:10:17.779Z,3.8
2023-01-23T18:12:19.791Z,3.79
2023-01-23T18:14:20.951Z,3.8
2023-01-23T18:18:24.041Z,3.79
2023-01-23T18:20:25.811Z,3.79
2023-01-23T18:22:26.907Z,3.79
2023-01-23T18:24:28.476Z,3.79
2023-01-23T18:28:31.246Z,3.79
2023-01-23T18:30:32.609Z,3.79
2023-01-23T18:34:35.584Z,3.79
2023-01-23T18:36:37.383Z,3.79
2023-01-23T18:38:39.185Z,3.79
2023-01-23T18:40:40.816Z,3.79
2023-01-23T18:44:44.045Z,3.79
2023-01-23T18:46:45.105Z,3.79
2023-01-23T18:48:46.395Z,3.79
2023-01-23T18:50:48.011Z,3.79
2023-01-23T18:52:49.082Z,3.79
2023-01-23T18:54:50.531Z,3.79
2023-01-23T18:56:52.066Z,3.79
2023-01-23T19:00:54.876Z,3.79
2023-01-23T19:02:55.958Z,3.79
2023-01-23T19:04:57.130Z,3.79
2023-01-23T19:06:58.365Z,3.78
2023-01-23T19:11:01.341Z,3.78
2023-01-23T19:13:02.524Z,3.79
2023-01-23T19:15:03.859Z,3.79
2023-01-23T19:17:05.568Z,3.78
2023-01-23T19:19:15.541Z,3.78
2023-01-23T19:21:09.240Z,3.78
2023-01-23T19:23:10.952Z,3.78
2023-01-23T19:27:14.068Z,3.78
2023-01-23T19:29:21.805Z,3.78
2023-01-23T19:33:18.931Z,3.78
2023-01-23T19:35:20.564Z,3.79
2023-01-23T19:37:21.872Z,3.78
2023-01-23T19:39:23.561Z,3.78
2023-01-23T19:43:28.011Z,3.78
2023-01-23T19:45:28.253Z,3.78
2023-01-23T19:47:29.941Z,3.78
2023-01-23T19:48:13.835Z,3.78
2023-01-23T19:50:15.280Z,3.78
2023-01-23T19:54:17.934Z,3.78
2023-01-23T19:56:19.831Z,3.78
2023-01-23T19:58:21.578Z,3.78
2023-01-23T20:00:23.421Z,3.78
2023-01-23T20:04:26.524Z,3.78
2023-01-23T20:06:28.244Z,3.78
2023-01-23T20:08:29.746Z,3.78
2023-01-23T20:10:31.229Z,3.78
2023-01-23T20:12:32.481Z,3.78
2023-01-23T20:14:34.034Z,3.78
2023-01-23T20:16:35.782Z,3.78
2023-01-23T20:20:38.828Z,3.78
2023-01-23T20:22:40.090Z,3.78
2023-01-23T20:24:41.604Z,3.78
2023-01-23T20:26:43.531Z,3.78
2023-01-23T20:28:45.467Z,3.78
2023-01-23T20:30:47.143Z,3.78
2023-01-23T20:32:49.082Z,3.78
2023-01-23T20:36:51.543Z,3.78
2023-01-23T20:38:53.268Z,3.78
2023-01-23T20:42:56.069Z,3.78
2023-01-23T20:46:59.851Z,3.77
2023-01-23T20:49:00.927Z,3.78
2023-01-23T20:51:02.064Z,3.77
2023-01-23T20:53:03.722Z,3.77
2023-01-23T20:55:05.583Z,3.77
2023-01-23T20:57:07.573Z,3.77
2023-01-23T20:59:09.484Z,3.77
2023-01-23T21:03:12.754Z,3.77
2023-01-23T21:05:13.860Z,3.77
2023-01-23T21:07:15.295Z,3.77
2023-01-23T21:09:16.896Z,3.77
2023-01-23T21:11:18.615Z,3.77
2023-01-23T21:13:20.105Z,3.77
2023-01-23T21:15:22.197Z,3.77
2023-01-23T21:19:24.973Z,3.77
2023-01-23T21:21:26.426Z,3.77
2023-01-23T21:23:28.198Z,3.77
2023-01-23T21:25:29.464Z,3.77
2023-01-23T21:29:32.086Z,3.77
2023-01-23T21:31:33.653Z,3.77
2023-01-23T21:33:35.279Z,3.77
2023-01-23T21:35:36.737Z,3.77
2023-01-23T21:37:38.646Z,3.77
2023-01-23T21:39:40.004Z,3.77
2023-01-23T21:41:41.103Z,3.77
2023-01-23T21:45:44.358Z,3.77
2023-01-23T21:47:46.204Z,3.77
2023-01-23T21:49:47.675Z,3.77
2023-01-23T21:51:49.456Z,3.77
2023-01-23T21:53:50.632Z,3.77
2023-01-23T21:55:52.450Z,3.77
2023-01-23T21:57:53.883Z,3.76
2023-01-23T22:01:56.586Z,3.76
2023-01-23T22:03:58.082Z,3.76
2023-01-23T22:05:59.393Z,3.76
2023-01-23T22:08:00.923Z,3.76
2023-01-23T22:12:03.293Z,3.76
2023-01-23T22:14:04.504Z,3.76
2023-01-23T22:18:07.621Z,3.76
2023-01-23T22:20:09.592Z,3.76
2023-01-23T22:22:10.677Z,3.76
2023-01-23T22:24:12.541Z,3.76
2023-01-23T22:28:16.160Z,3.76
2023-01-23T22:30:17.363Z,3.76
2023-01-23T22:32:18.945Z,3.76
2023-01-23T22:34:20.321Z,3.76
2023-01-23T22:36:22.111Z,3.76
2023-01-23T22:38:23.336Z,3.76
2023-01-23T22:40:24.904Z,3.76
2023-01-23T22:44:28.658Z,3.76
2023-01-23T22:46:30.651Z,3.76
2023-01-23T22:48:31.880Z,3.76
2023-01-23T22:50:33.715Z,3.76
2023-01-23T22:54:36.544Z,3.76
2023-01-23T22:56:38.519Z,3.76
2023-01-23T23:00:41.770Z,3.76
2023-01-23T23:02:43.563Z,3.76
2023-01-23T23:04:44.831Z,3.76
2023-01-23T23:06:46.538Z,3.76
2023-01-23T23:10:49.359Z,3.76
2023-01-23T23:12:51.002Z,3.76
2023-01-23T23:14:52.458Z,3.76
2023-01-23T23:16:53.747Z,3.76
2023-01-23T23:18:55.779Z,3.76
2023-01-23T23:20:57.387Z,3.75
2023-01-23T23:22:58.808Z,3.75
2023-01-23T23:27:01.910Z,3.75
2023-01-23T23:29:03.912Z,3.75
2023-01-23T23:31:05.541Z,3.75
2023-01-23T23:33:06.810Z,3.75
2023-01-23T23:37:10.331Z,3.75
2023-01-23T23:39:11.480Z,3.76
2023-01-23T23:43:14.966Z,3.75
2023-01-23T23:45:16.226Z,3.75
2023-01-23T23:47:18.100Z,3.75
2023-01-23T23:49:19.426Z,3.75
2023-01-23T23:53:22.817Z,3.75
2023-01-23T23:55:24.102Z,3.75
2023-01-23T23:57:25.864Z,3.75
2023-01-23T23:59:27.254Z,3.75
